Las horas y fechas están en horario UTC
Sumar 1 hora en el horario de Invierno y 2 horas en el de Verano

Informes METAR cercanos

 

LEZL - Sevilla (civ/Mil, Spain
Distance from station: NNE 24km
Actualización: 06/06/2020 05:30
Despejado
Despejado
 Viento del S
Viento: S 9 km/h
Temperatura: 17°C
Rocío: 16°C
Humedad: 94%
Barómetro: 1013 hPa
Resumen: Despejado
Visibility: greater than 10 km
2020/06/06 03:30 LEZL 060330Z 17005KT CAVOK 17/16 Q1013 NOSIG
LEMO - Moron (sp-Usafb), Spain
Distance from station: E 38km
Actualización: 06/06/2020 05:00
Despejado
Despejado
 Viento del S
Viento: S 9 km/h
Temperatura: 16°C
Rocío: 14°C
Humedad: 88%
Barómetro: 1013 hPa
Resumen: Despejado
Visibility: greater than 10 km
2020/06/06 03:00 LEMO 060300Z 19005KT CAVOK 16/14 Q1013 NOSIG
LEJR - Jerez (civ/Mil), Spain
Distance from station: S 53km
Actualización: 06/06/2020 05:30
Muy nuboso
Muy nuboso
 Viento del varies
Viento: varies 2 km/h
Temperatura: 16°C
Rocío: 15°C
Humedad: 94%
Barómetro: 1013 hPa
Clouds: Muy nuboso
Visibility: 9 km
Cloud details: Muy nuboso 366 m
2020/06/06 03:30 LEJR 060330Z VRB01KT 9000 BKN012 16/15 Q1013
 
LERT - Rota Naval Stati, Spain
Distance from station: SSO 71km
Actualización: 06/06/2020 05:00
Despejado
Despejado
 Viento del OSO
Viento: OSO 7 km/h
Temperatura: 19°C
Rocío: 17°C
Humedad: 88%
Barómetro: 1013 hPa
Clouds: Despejado
Visibility: 10 km
2020/06/06 03:00 LERT 060300Z AUTO 24004KT 200V260 9999 4600E NCD 19/17 Q1013
LEBA - Cordoba Airport, Spain
Distance from station: ENE 128km
Actualización: 06/06/2020 05:00
Despejado
Despejado
 Viento del OSO
Viento: OSO 6 km/h
Temperatura: 17°C
Rocío: 14°C
Humedad: 83%
Barómetro: 1013 hPa
Resumen: Despejado
Visibility: greater than 10 km
2020/06/06 03:00 LEBA 060300Z AUTO 25003KT CAVOK 17/14 Q1013
LXGB - Gibraltar (civ/M, Gibraltar
Distance from station: SSE 137km
Actualización: 06/06/2020 04:50
Despejado
Despejado
 Viento del ONO
Viento: ONO 24 km/h
Temperatura: 19°C
Rocío: 16°C
Humedad: 83%
Barómetro: 1013 hPa
Clouds: Despejado
Visibility: 10 km
2020/06/06 02:50 LXGB 060250Z AUTO 29013KT 9999 // NCD 19/16 Q1013
 
LEMG - Malaga (civ/Mil), Spain
Distance from station: ESE 150km
Actualización: 06/06/2020 05:30
Despejado
Despejado
 Viento del O
Viento: O 20 km/h
Temperatura: 22°C
Rocío: 16°C
Humedad: 69%
Barómetro: 1012 hPa
Resumen: Despejado
Visibility: greater than 10 km
2020/06/06 03:30 LEMG 060330Z 28011KT CAVOK 22/16 Q1012 NOSIG
GMTT - Tangier/Boukhalf, Morocco
Distance from station: S 169km
Actualización: 06/06/2020 05:30
Mist, Parcialmente nuboso
Mist, Parcialmente nuboso
 Viento del varies
Viento: varies 4 km/h
Temperatura: 18°C
Rocío: 18°C
Humedad: 100%
Barómetro: 1014 hPa
Resumen: Mist
Clouds: Parcialmente nuboso
Visibility: 4 km
Cloud details: Few Clouds 305 m
Parcialmente nuboso 6096 m
2020/06/06 03:30 GMTT 060330Z VRB02KT 4000 BR FEW010 SCT200 18/18 Q1014 NOSIG
LPFR - Faro, Portugal
Distance from station: O 172km
Actualización: 06/06/2020 05:30
Despejado
Despejado
 Viento del N
Viento: N 7 km/h
Temperatura: 17°C
Rocío: 12°C
Humedad: 73%
Barómetro: 1013 hPa
Resumen: Despejado
Visibility: greater than 10 km
2020/06/06 03:30 LPFR 060330Z 01004KT CAVOK 17/12 Q1013
 
LPBJ - Beja (por/Ger-Af, Portugal
Distance from station: ONO 192km
Actualización: 06/06/2020 05:00
Despejado
Despejado
 Viento del ONO
Viento: ONO 7 km/h
Temperatura: 13°C
Rocío: 11°C
Humedad: 88%
Barómetro: 1014 hPa
Resumen: Despejado
Visibility: greater than 10 km
2020/06/06 03:00 LPBJ 060300Z 30004KT CAVOK 13/11 Q1014
LEBZ - Talavera Ab/Bada, Spain
Distance from station: NNO 194km
Actualización: 06/06/2020 05:00
Despejado
Despejado
 Viento del OSO
Viento: OSO 7 km/h
Temperatura: 14°C
Rocío: 12°C
Humedad: 88%
Barómetro: 1013 hPa
Resumen: Despejado
Visibility: greater than 10 km
2020/06/06 03:00 LEBZ 060300Z AUTO 25004KT CAVOK 14/12 Q1013
LEMD - Madrid/Barajas, Spain
Distance from station: NE 415km
Actualización: 06/06/2020 05:30
Despejado
Despejado
 Viento del varies
Viento: varies 4 km/h
Temperatura: 15°C
Rocío: 11°C
Humedad: 77%
Barómetro: 1012 hPa
Resumen: Despejado
Visibility: greater than 10 km
2020/06/06 03:30 LEMD 060330Z VRB02KT CAVOK 15/11 Q1012 NOSIG